CheckWX is a tool to help pilots better visualize weather data.  It is not intended as a substitute for an official pre-flight weather briefing.

06:08:21 UTC

DTTF METAR
Gafsa Ksar International Airport
Gafsa, Tunisia
Current

1 hour ago

DTTF 050500Z AUTO 02007KT NCD 10/06 Q1019
Observed
Apr-5 @ 05:00 UTC
Wind
  • 020° at 7 KTS
Visibility
Cloud Levels
  • Clear skies
Temperature
10°C / 50°F
Dewpoint
C / 43°F
Humidity
76%
Altimeter
30.09" Hg
Pressure
1018.92 hPa
Previous

2 hours ago

DTTF 050400Z AUTO 35007KT NCD 10/06 Q1019
Observed
Apr-5 @ 04:00 UTC
Wind
  • 350° at 7 KTS
Visibility
Cloud Levels
  • Clear skies
Temperature
10°C / 50°F
Dewpoint
C / 43°F
Humidity
76%
Altimeter
30.09" Hg
Pressure
1018.92 hPa
Previous

3 hours ago

DTTF 050300Z AUTO 01007KT NCD 11/07 Q1019
Observed
Apr-5 @ 03:00 UTC
Wind
  • 010° at 7 KTS
Visibility
Cloud Levels
  • Clear skies
Temperature
11°C / 52°F
Dewpoint
C / 45°F
Humidity
77%
Altimeter
30.09" Hg
Pressure
1018.92 hPa